Time;durP1;ratioP1;P1;durP2;ratioP2;P2;SDS_P1;SDS_P2;PMS_P1;PMS_P2;Temp;Humidity;BMP_temperature;BMP_pressure;BME280_temperature;BME280_humidity;BME280_pressure;Samples;Min_cycle;Max_cycle;Signal;HPM_P1;HPM_P2
2023/07/22 00:01:15;;;;;;;10.00;6.00;;;;;;;20.26;71.27;99780.39;674179;1263;125597;-77
2023/07/22 00:16:19;;;;;;;11.10;5.80;;;;;;;19.86;74.70;99793.02;674824;1261;139648;-77
2023/07/22 00:31:22;;;;;;;9.60;5.80;;;;;;;19.46;78.73;99802.54;676257;1261;139386;-78
2023/07/22 00:46:25;;;;;;;8.70;5.50;;;;;;;17.42;93.01;99767.90;674168;1257;139107;-78
2023/07/22 01:01:29;;;;;;;11.00;5.00;;;;;;;17.06;97.95;99760.15;677067;1275;138652;-78
2023/07/22 01:16:34;;;;;;;9.00;5.50;;;;;;;16.94;99.54;99740.27;678507;1262;139051;-78
2023/07/22 01:31:37;;;;;;;9.40;4.40;;;;;;;17.10;99.80;99734.55;677090;1261;139195;-78
2023/07/22 01:46:41;;;;;;;13.90;5.10;;;;;;;17.10;99.97;99726.27;674303;1262;139088;-78
2023/07/22 02:01:45;;;;;;;5.10;3.20;;;;;;;17.28;100.00;99721.19;675421;1263;139208;-79
2023/07/22 02:16:48;;;;;;;7.20;3.90;;;;;;;17.14;99.85;99712.88;674072;1261;139166;-78
2023/07/22 02:31:52;;;;;;;7.00;4.10;;;;;;;16.95;100.00;99724.45;675113;1261;138811;-78
2023/07/22 02:46:55;;;;;;;6.20;4.30;;;;;;;17.16;100.00;99737.19;675649;1262;138964;-78
2023/07/22 03:01:59;;;;;;;10.00;4.70;;;;;;;17.17;100.00;99744.98;674461;1263;140020;-77
2023/07/22 03:17:03;;;;;;;9.30;4.20;;;;;;;17.17;100.00;99746.58;677662;1265;139676;-78
2023/07/22 03:32:07;;;;;;;6.10;3.60;;;;;;;17.21;100.00;99763.61;679280;1264;139317;-78
2023/07/22 03:47:11;;;;;;;6.50;3.40;;;;;;;17.29;100.00;99769.69;675493;1271;138743;-77
2023/07/22 04:02:14;;;;;;;5.40;4.00;;;;;;;17.34;100.00;99770.89;675922;1263;138941;-77
2023/07/22 04:17:17;;;;;;;7.80;3.50;;;;;;;17.49;100.00;99772.23;674491;1263;138860;-77
2023/07/22 04:32:21;;;;;;;9.70;4.60;;;;;;;17.81;99.98;99775.17;675527;1262;139439;-78
2023/07/22 04:47:24;;;;;;;5.50;2.80;;;;;;;17.81;99.95;99767.83;676748;1262;138986;-77
2023/07/22 05:02:27;;;;;;;5.30;3.60;;;;;;;18.08;99.65;99768.98;674886;1260;139589;-77
2023/07/22 05:17:31;;;;;;;6.50;4.10;;;;;;;18.56;98.01;99772.88;678600;1263;138844;-77
2023/07/22 05:32:35;;;;;;;4.20;2.90;;;;;;;19.15;96.12;99783.81;673106;1263;139017;-77
2023/07/22 05:47:39;;;;;;;4.30;2.70;;;;;;;20.81;91.60;99782.80;676651;1262;138641;-76
2023/07/22 06:02:42;;;;;;;3.10;2.00;;;;;;;21.42;86.64;99793.11;676779;1257;140067;-76
2023/07/22 06:17:46;;;;;;;8.70;3.80;;;;;;;21.81;82.06;99790.52;677787;1272;138711;-77
2023/07/22 06:32:50;;;;;;;6.50;2.40;;;;;;;22.41;81.07;99793.34;679703;1258;139198;-77
2023/07/22 06:47:53;;;;;;;3.70;2.40;;;;;;;24.65;74.47;99798.98;674282;1264;138766;-77
2023/07/22 07:02:57;;;;;;;3.70;2.10;;;;;;;24.28;69.85;99801.42;677182;1263;138817;-77
2023/07/22 07:18:00;;;;;;;5.30;2.90;;;;;;;25.09;67.01;99813.43;678115;1263;139003;-76
2023/07/22 07:33:03;;;;;;;5.00;4.00;;;;;;;26.56;63.73;99824.15;679877;1262;140155;-77
2023/07/22 07:48:07;;;;;;;5.60;2.70;;;;;;;26.63;62.53;99826.06;680207;1263;138503;-77
2023/07/22 08:03:11;;;;;;;4.50;2.30;;;;;;;26.79;62.18;99837.84;680904;1261;138728;-77
2023/07/22 08:18:15;;;;;;;22.00;4.30;;;;;;;26.58;61.70;99835.80;680967;1258;138385;-77
2023/07/22 08:33:19;;;;;;;5.00;3.20;;;;;;;25.60;63.00;99838.89;679402;1263;139312;-78
2023/07/22 08:48:46;;;;;;;24.60;12.40;;;;;;;25.28;63.43;99835.91;678386;1263;138460;-78
2023/07/22 09:03:52;;;;;;;5.40;3.10;;;;;;;25.90;61.48;99837.73;677805;1263;139495;-77
2023/07/22 09:18:59;;;;;;;6.70;3.90;;;;;;;25.67;61.19;99841.90;676100;1263;137965;-77
2023/07/22 09:34:10;;;;;;;33.40;15.60;;;;;;;25.27;61.67;99840.34;675884;1258;138383;-79
2023/07/22 09:49:16;;;;;;;9.20;4.80;;;;;;;25.28;60.16;99830.85;677532;1257;139191;-77
2023/07/22 10:04:23;;;;;;;5.60;3.00;;;;;;;26.02;59.38;99823.64;678284;1263;139297;-78
2023/07/22 10:19:27;;;;;;;31.60;16.60;;;;;;;26.19;58.96;99815.83;678617;1257;138279;-78
2023/07/22 10:34:30;;;;;;;6.70;4.10;;;;;;;25.93;57.57;99823.69;676995;1262;140021;-78
2023/07/22 10:49:46;;;;;;;4.00;1.80;;;;;;;26.76;52.65;99823.16;675771;1261;138507;-80
2023/07/22 11:04:50;;;;;;;7.10;3.50;;;;;;;26.46;52.34;99831.89;676410;1264;139968;-79
2023/07/22 11:20:00;;;;;;;18.20;11.40;;;;;;;26.53;52.12;99845.57;676215;1263;139961;-78
2023/07/22 11:35:04;;;;;;;13.40;4.20;;;;;;;26.40;52.45;99853.91;676504;1262;138746;-78
2023/07/22 11:50:08;;;;;;;6.30;2.60;;;;;;;26.94;52.72;99874.25;680739;1260;139675;-77
2023/07/22 12:05:20;;;;;;;5.40;2.50;;;;;;;26.74;51.89;99896.70;680525;1262;139798;-77
2023/07/22 12:20:26;;;;;;;5.70;2.70;;;;;;;24.21;57.79;99947.17;680942;1260;139365;-79
2023/07/22 12:35:30;;;;;;;5.00;3.50;;;;;;;25.64;58.22;99940.19;676611;1277;138702;-78
2023/07/22 12:50:33;;;;;;;4.10;3.20;;;;;;;25.24;57.54;99954.85;679458;1262;138868;-78
2023/07/22 13:05:36;;;;;;;4.40;2.70;;;;;;;24.90;58.47;99949.34;679758;1262;140340;-79
2023/07/22 13:20:40;;;;;;;5.40;2.40;;;;;;;25.97;56.39;99940.61;676921;1261;138208;-79
2023/07/22 13:35:44;;;;;;;8.30;5.70;;;;;;;26.54;54.49;99944.80;675874;1263;139119;-79
2023/07/22 13:50:47;;;;;;;6.60;2.50;;;;;;;26.15;53.50;99935.58;676328;1260;140136;-78
2023/07/22 14:05:50;;;;;;;10.30;7.30;;;;;;;25.91;54.20;99940.08;677639;1263;139313;-77
2023/07/22 14:20:54;;;;;;;4.80;3.40;;;;;;;26.28;52.81;99932.15;677116;1263;138361;-79
2023/07/22 14:35:57;;;;;;;4.50;3.20;;;;;;;26.48;52.35;99920.14;675201;1275;138094;-78
2023/07/22 14:51:01;;;;;;;11.40;7.80;;;;;;;26.21;51.99;99925.42;674263;1262;138045;-78
2023/07/22 15:06:05;;;;;;;8.80;4.70;;;;;;;25.31;54.16;99933.88;673210;1262;139016;-79
2023/07/22 15:21:08;;;;;;;34.10;15.40;;;;;;;24.31;55.40;99948.39;673993;1263;138366;-79
2023/07/22 15:36:12;;;;;;;70.50;36.80;;;;;;;23.78;55.97;99943.20;676694;1262;138250;-79
2023/07/22 15:51:16;;;;;;;7.10;4.70;;;;;;;24.85;55.01;99942.63;674241;1264;140141;-78
2023/07/22 16:06:19;;;;;;;6.70;3.30;;;;;;;25.02;52.75;99944.34;674745;1262;139648;-79
2023/07/22 16:21:34;;;;;;;4.70;3.00;;;;;;;24.64;51.08;99958.02;676575;1276;139648;-79
2023/07/22 16:36:38;;;;;;;3.80;2.90;;;;;;;25.37;50.62;99962.02;676757;1264;138406;-80
2023/07/22 16:51:42;;;;;;;4.90;2.70;;;;;;;25.25;51.35;99975.05;676007;1265;139669;-79
2023/07/22 17:06:45;;;;;;;5.00;3.00;;;;;;;24.24;52.57;99990.97;675289;1265;138971;-80
2023/07/22 17:21:48;;;;;;;6.30;3.90;;;;;;;23.13;56.46;100008.31;675424;1263;139237;-79
2023/07/22 17:36:53;;;;;;;6.10;3.50;;;;;;;22.18;59.37;100022.02;674891;1260;139894;-79
2023/07/22 17:51:57;;;;;;;6.20;2.80;;;;;;;22.15;60.21;100039.16;677041;1263;139205;-79
2023/07/22 18:07:04;;;;;;;4.50;2.90;;;;;;;22.09;59.54;100052.02;679695;1257;139845;-79
2023/07/22 18:22:07;;;;;;;8.20;4.50;;;;;;;21.65;60.62;100072.58;680259;1263;139334;-80
2023/07/22 18:37:11;;;;;;;7.30;3.60;;;;;;;21.40;62.04;100085.56;679431;1260;138391;-79
2023/07/22 18:52:14;;;;;;;18.30;9.40;;;;;;;21.06;64.23;100090.67;680657;1263;138591;-78
2023/07/22 19:07:29;;;;;;;11.90;7.40;;;;;;;20.74;67.47;100087.02;679443;1263;140206;-79
2023/07/22 19:22:32;;;;;;;7.50;4.70;;;;;;;20.38;67.86;100092.73;679611;1260;140607;-79
2023/07/22 19:37:36;;;;;;;6.10;3.90;;;;;;;19.76;69.37;100103.08;681419;1263;139688;-78
2023/07/22 19:52:40;;;;;;;6.90;4.10;;;;;;;18.67;71.78;100120.34;681642;1263;139789;-79
2023/07/22 20:07:44;;;;;;;7.00;4.40;;;;;;;17.89;73.64;100121.48;675695;1263;138591;-79
2023/07/22 20:22:47;;;;;;;8.70;4.30;;;;;;;17.38;78.10;100131.48;676883;1264;139909;-78
2023/07/22 20:37:50;;;;;;;6.80;4.50;;;;;;;17.39;77.70;100132.70;678149;1261;140467;-80
2023/07/22 20:52:54;;;;;;;6.20;4.70;;;;;;;17.44;77.21;100147.34;676529;1263;140361;-79
2023/07/22 21:07:57;;;;;;;5.30;3.80;;;;;;;16.50;81.67;100155.81;678461;1263;138998;-79
2023/07/22 21:23:00;;;;;;;7.10;4.90;;;;;;;15.90;82.56;100162.26;675559;1267;140228;-79
2023/07/22 21:38:04;;;;;;;8.20;4.80;;;;;;;15.90;82.86;100157.52;677315;1262;140779;-79
2023/07/22 21:53:08;;;;;;;6.50;3.70;;;;;;;15.66;82.29;100172.33;675984;1263;141194;-79
2023/07/22 22:08:11;;;;;;;6.50;4.50;;;;;;;15.00;85.55;100176.73;675032;1260;141569;-80
2023/07/22 22:23:15;;;;;;;7.50;4.50;;;;;;;14.56;88.35;100175.42;677688;1263;140056;-79
2023/07/22 22:38:18;;;;;;;7.40;5.10;;;;;;;14.38;90.31;100168.33;674424;1263;139980;-78
2023/07/22 22:53:21;;;;;;;10.10;4.20;;;;;;;14.28;91.01;100173.04;674863;1263;140281;-78
2023/07/22 23:08:24;;;;;;;9.40;5.60;;;;;;;14.29;90.39;100182.63;675621;1264;141284;-79
2023/07/22 23:23:27;;;;;;;7.40;5.30;;;;;;;14.61;89.90;100175.89;676344;1257;139922;-79
2023/07/22 23:38:31;;;;;;;11.90;6.30;;;;;;;14.31;89.45;100170.48;676200;1268;140293;-79
2023/07/22 23:53:34;;;;;;;7.70;5.40;;;;;;;14.32;89.32;100185.32;676659;1257;140222;-79
